sensor_id;sensor_type;location;lat;lon;timestamp;P1;durP1;ratioP1;P2;durP2;ratioP2
67556;SDS011;54387;53.526;49.300;2023-05-27T00:01:18;12.25;;;6.95;;
67556;SDS011;54387;53.526;49.300;2023-05-27T00:03:44;12.85;;;7.05;;
67556;SDS011;54387;53.526;49.300;2023-05-27T00:06:11;15.93;;;7.25;;
67556;SDS011;54387;53.526;49.300;2023-05-27T00:08:38;15.32;;;7.53;;
67556;SDS011;54387;53.526;49.300;2023-05-27T00:11:04;13.60;;;6.95;;
67556;SDS011;54387;53.526;49.300;2023-05-27T00:13:31;13.05;;;6.82;;
67556;SDS011;54387;53.526;49.300;2023-05-27T00:15:57;14.98;;;6.63;;
67556;SDS011;54387;53.526;49.300;2023-05-27T00:18:23;11.38;;;7.00;;
67556;SDS011;54387;53.526;49.300;2023-05-27T00:20:49;12.20;;;6.90;;
67556;SDS011;54387;53.526;49.300;2023-05-27T00:23:15;13.15;;;6.85;;
67556;SDS011;54387;53.526;49.300;2023-05-27T00:25:42;14.40;;;7.50;;
67556;SDS011;54387;53.526;49.300;2023-05-27T00:28:08;13.48;;;7.50;;
67556;SDS011;54387;53.526;49.300;2023-05-27T00:30:34;15.77;;;7.13;;
67556;SDS011;54387;53.526;49.300;2023-05-27T00:33:01;11.82;;;7.15;;
67556;SDS011;54387;53.526;49.300;2023-05-27T00:35:28;10.45;;;7.18;;
67556;SDS011;54387;53.526;49.300;2023-05-27T00:37:54;11.80;;;6.80;;
67556;SDS011;54387;53.526;49.300;2023-05-27T00:40:21;14.05;;;7.55;;
67556;SDS011;54387;53.526;49.300;2023-05-27T00:42:50;11.73;;;6.97;;
67556;SDS011;54387;53.526;49.300;2023-05-27T00:45:16;11.57;;;6.85;;
67556;SDS011;54387;53.526;49.300;2023-05-27T00:47:42;12.05;;;7.10;;
67556;SDS011;54387;53.526;49.300;2023-05-27T00:50:09;12.70;;;6.97;;
67556;SDS011;54387;53.526;49.300;2023-05-27T00:52:35;11.95;;;6.57;;
67556;SDS011;54387;53.526;49.300;2023-05-27T00:55:01;11.55;;;7.10;;
67556;SDS011;54387;53.526;49.300;2023-05-27T00:57:28;9.05;;;6.00;;
67556;SDS011;54387;53.526;49.300;2023-05-27T00:59:54;10.48;;;6.47;;
67556;SDS011;54387;53.526;49.300;2023-05-27T01:02:20;15.60;;;6.60;;
67556;SDS011;54387;53.526;49.300;2023-05-27T01:04:48;17.80;;;6.65;;
67556;SDS011;54387;53.526;49.300;2023-05-27T01:07:20;16.67;;;6.88;;
67556;SDS011;54387;53.526;49.300;2023-05-27T01:09:58;9.70;;;6.30;;
67556;SDS011;54387;53.526;49.300;2023-05-27T01:12:38;16.73;;;6.40;;
67556;SDS011;54387;53.526;49.300;2023-05-27T01:15:12;15.30;;;7.03;;
67556;SDS011;54387;53.526;49.300;2023-05-27T01:17:39;10.95;;;6.93;;
67556;SDS011;54387;53.526;49.300;2023-05-27T01:20:09;12.98;;;6.25;;
67556;SDS011;54387;53.526;49.300;2023-05-27T01:22:36;11.13;;;5.82;;
67556;SDS011;54387;53.526;49.300;2023-05-27T01:25:07;12.80;;;6.25;;
67556;SDS011;54387;53.526;49.300;2023-05-27T01:27:34;15.93;;;6.13;;
67556;SDS011;54387;53.526;49.300;2023-05-27T01:30:01;12.27;;;6.85;;
67556;SDS011;54387;53.526;49.300;2023-05-27T01:32:48;12.20;;;6.60;;
67556;SDS011;54387;53.526;49.300;2023-05-27T01:37:58;14.32;;;6.18;;
67556;SDS011;54387;53.526;49.300;2023-05-27T01:40:29;14.68;;;6.18;;
67556;SDS011;54387;53.526;49.300;2023-05-27T01:42:56;13.60;;;6.28;;
67556;SDS011;54387;53.526;49.300;2023-05-27T01:45:24;15.35;;;6.47;;
67556;SDS011;54387;53.526;49.300;2023-05-27T01:47:51;15.02;;;6.25;;
67556;SDS011;54387;53.526;49.300;2023-05-27T01:50:18;19.13;;;6.38;;
67556;SDS011;54387;53.526;49.300;2023-05-27T01:52:44;15.43;;;5.97;;
67556;SDS011;54387;53.526;49.300;2023-05-27T01:55:10;13.57;;;6.45;;
67556;SDS011;54387;53.526;49.300;2023-05-27T01:57:37;17.30;;;5.70;;
67556;SDS011;54387;53.526;49.300;2023-05-27T02:00:04;11.93;;;5.53;;
67556;SDS011;54387;53.526;49.300;2023-05-27T02:02:32;10.55;;;5.35;;
67556;SDS011;54387;53.526;49.300;2023-05-27T02:04:58;17.00;;;5.97;;
67556;SDS011;54387;53.526;49.300;2023-05-27T02:07:24;10.15;;;5.70;;
67556;SDS011;54387;53.526;49.300;2023-05-27T02:09:52;17.65;;;6.28;;
67556;SDS011;54387;53.526;49.300;2023-05-27T02:12:18;13.38;;;5.80;;
67556;SDS011;54387;53.526;49.300;2023-05-27T02:14:44;13.63;;;5.82;;
67556;SDS011;54387;53.526;49.300;2023-05-27T02:17:11;15.38;;;5.25;;
67556;SDS011;54387;53.526;49.300;2023-05-27T02:19:40;11.55;;;5.35;;
67556;SDS011;54387;53.526;49.300;2023-05-27T02:22:06;13.00;;;5.75;;
67556;SDS011;54387;53.526;49.300;2023-05-27T02:24:33;14.07;;;5.20;;
67556;SDS011;54387;53.526;49.300;2023-05-27T02:26:59;14.13;;;5.10;;
67556;SDS011;54387;53.526;49.300;2023-05-27T02:29:26;15.55;;;5.70;;
67556;SDS011;54387;53.526;49.300;2023-05-27T02:31:53;10.00;;;5.32;;
67556;SDS011;54387;53.526;49.300;2023-05-27T02:34:19;14.82;;;5.70;;
67556;SDS011;54387;53.526;49.300;2023-05-27T02:36:45;12.50;;;5.40;;
67556;SDS011;54387;53.526;49.300;2023-05-27T02:39:11;12.88;;;5.38;;
67556;SDS011;54387;53.526;49.300;2023-05-27T02:41:38;13.07;;;5.90;;
67556;SDS011;54387;53.526;49.300;2023-05-27T02:44:05;13.88;;;4.93;;
67556;SDS011;54387;53.526;49.300;2023-05-27T02:46:31;18.13;;;5.72;;
67556;SDS011;54387;53.526;49.300;2023-05-27T02:48:57;19.60;;;5.28;;
67556;SDS011;54387;53.526;49.300;2023-05-27T02:51:24;14.05;;;5.38;;
67556;SDS011;54387;53.526;49.300;2023-05-27T02:53:50;13.85;;;5.40;;
67556;SDS011;54387;53.526;49.300;2023-05-27T02:56:16;13.95;;;5.40;;
67556;SDS011;54387;53.526;49.300;2023-05-27T02:58:43;14.27;;;5.20;;
67556;SDS011;54387;53.526;49.300;2023-05-27T03:01:09;16.17;;;5.20;;
67556;SDS011;54387;53.526;49.300;2023-05-27T03:03:35;14.77;;;5.68;;
67556;SDS011;54387;53.526;49.300;2023-05-27T03:06:02;12.43;;;5.85;;
67556;SDS011;54387;53.526;49.300;2023-05-27T03:08:29;14.20;;;5.25;;
67556;SDS011;54387;53.526;49.300;2023-05-27T03:10:56;15.30;;;5.38;;
67556;SDS011;54387;53.526;49.300;2023-05-27T03:13:22;15.52;;;5.32;;
67556;SDS011;54387;53.526;49.300;2023-05-27T03:15:48;14.40;;;5.43;;
67556;SDS011;54387;53.526;49.300;2023-05-27T03:18:15;13.70;;;5.25;;
67556;SDS011;54387;53.526;49.300;2023-05-27T03:20:41;17.20;;;5.38;;
67556;SDS011;54387;53.526;49.300;2023-05-27T03:23:08;12.88;;;4.75;;
67556;SDS011;54387;53.526;49.300;2023-05-27T03:25:34;16.17;;;5.25;;
67556;SDS011;54387;53.526;49.300;2023-05-27T03:28:00;17.27;;;5.05;;
67556;SDS011;54387;53.526;49.300;2023-05-27T03:30:26;15.15;;;4.60;;
67556;SDS011;54387;53.526;49.300;2023-05-27T03:32:52;23.52;;;5.57;;
67556;SDS011;54387;53.526;49.300;2023-05-27T03:35:18;15.80;;;5.00;;
67556;SDS011;54387;53.526;49.300;2023-05-27T03:37:45;17.63;;;4.95;;
67556;SDS011;54387;53.526;49.300;2023-05-27T03:40:11;15.50;;;4.82;;
67556;SDS011;54387;53.526;49.300;2023-05-27T03:42:38;12.80;;;5.05;;
67556;SDS011;54387;53.526;49.300;2023-05-27T03:45:04;15.00;;;5.25;;
67556;SDS011;54387;53.526;49.300;2023-05-27T03:47:31;12.93;;;5.25;;
67556;SDS011;54387;53.526;49.300;2023-05-27T03:49:57;14.80;;;5.00;;
67556;SDS011;54387;53.526;49.300;2023-05-27T03:52:23;15.45;;;4.68;;
67556;SDS011;54387;53.526;49.300;2023-05-27T03:54:49;14.98;;;5.13;;
67556;SDS011;54387;53.526;49.300;2023-05-27T03:57:16;12.93;;;5.28;;
67556;SDS011;54387;53.526;49.300;2023-05-27T03:59:42;14.77;;;5.47;;
67556;SDS011;54387;53.526;49.300;2023-05-27T04:02:08;14.35;;;5.53;;
67556;SDS011;54387;53.526;49.300;2023-05-27T04:04:34;11.38;;;5.32;;
67556;SDS011;54387;53.526;49.300;2023-05-27T04:07:00;17.67;;;5.63;;
67556;SDS011;54387;53.526;49.300;2023-05-27T04:09:26;17.73;;;5.22;;
67556;SDS011;54387;53.526;49.300;2023-05-27T04:11:53;19.77;;;5.13;;
67556;SDS011;54387;53.526;49.300;2023-05-27T04:14:19;12.90;;;5.03;;
67556;SDS011;54387;53.526;49.300;2023-05-27T04:16:45;14.60;;;5.15;;
67556;SDS011;54387;53.526;49.300;2023-05-27T04:19:12;14.45;;;5.55;;
67556;SDS011;54387;53.526;49.300;2023-05-27T04:21:39;14.15;;;4.93;;
67556;SDS011;54387;53.526;49.300;2023-05-27T04:24:05;13.43;;;5.22;;
67556;SDS011;54387;53.526;49.300;2023-05-27T04:26:32;15.60;;;4.88;;
67556;SDS011;54387;53.526;49.300;2023-05-27T04:28:58;14.18;;;5.10;;
67556;SDS011;54387;53.526;49.300;2023-05-27T04:31:25;15.52;;;5.22;;
67556;SDS011;54387;53.526;49.300;2023-05-27T04:33:54;12.60;;;5.05;;
67556;SDS011;54387;53.526;49.300;2023-05-27T04:36:20;9.23;;;4.72;;
67556;SDS011;54387;53.526;49.300;2023-05-27T04:38:51;16.23;;;4.88;;
67556;SDS011;54387;53.526;49.300;2023-05-27T04:41:18;15.20;;;5.32;;
67556;SDS011;54387;53.526;49.300;2023-05-27T04:43:54;13.25;;;5.10;;
67556;SDS011;54387;53.526;49.300;2023-05-27T04:46:22;11.00;;;5.13;;
67556;SDS011;54387;53.526;49.300;2023-05-27T04:48:51;18.73;;;5.32;;
67556;SDS011;54387;53.526;49.300;2023-05-27T04:51:21;15.23;;;5.13;;
67556;SDS011;54387;53.526;49.300;2023-05-27T04:53:48;18.10;;;5.90;;
67556;SDS011;54387;53.526;49.300;2023-05-27T04:56:15;14.85;;;5.10;;
67556;SDS011;54387;53.526;49.300;2023-05-27T04:58:43;17.83;;;4.90;;
67556;SDS011;54387;53.526;49.300;2023-05-27T05:01:12;11.80;;;5.05;;
67556;SDS011;54387;53.526;49.300;2023-05-27T05:03:46;18.58;;;5.25;;
67556;SDS011;54387;53.526;49.300;2023-05-27T05:06:37;14.23;;;5.20;;
67556;SDS011;54387;53.526;49.300;2023-05-27T05:09:05;16.00;;;5.50;;
67556;SDS011;54387;53.526;49.300;2023-05-27T05:11:33;15.57;;;5.38;;
67556;SDS011;54387;53.526;49.300;2023-05-27T05:13:59;13.73;;;5.07;;
67556;SDS011;54387;53.526;49.300;2023-05-27T05:16:25;15.52;;;5.00;;
67556;SDS011;54387;53.526;49.300;2023-05-27T05:18:52;14.25;;;5.07;;
67556;SDS011;54387;53.526;49.300;2023-05-27T05:21:18;15.10;;;5.00;;
67556;SDS011;54387;53.526;49.300;2023-05-27T05:23:44;14.13;;;5.25;;
67556;SDS011;54387;53.526;49.300;2023-05-27T05:26:12;13.63;;;5.63;;
67556;SDS011;54387;53.526;49.300;2023-05-27T05:28:38;13.38;;;5.15;;
67556;SDS011;54387;53.526;49.300;2023-05-27T05:31:04;13.65;;;5.18;;
67556;SDS011;54387;53.526;49.300;2023-05-27T05:33:31;16.73;;;5.15;;
67556;SDS011;54387;53.526;49.300;2023-05-27T05:35:57;16.58;;;5.38;;
67556;SDS011;54387;53.526;49.300;2023-05-27T05:38:23;14.95;;;5.28;;
67556;SDS011;54387;53.526;49.300;2023-05-27T05:40:49;15.02;;;4.43;;
67556;SDS011;54387;53.526;49.300;2023-05-27T05:43:21;13.88;;;4.68;;
67556;SDS011;54387;53.526;49.300;2023-05-27T05:45:47;13.23;;;5.00;;
67556;SDS011;54387;53.526;49.300;2023-05-27T05:48:13;11.68;;;4.78;;
67556;SDS011;54387;53.526;49.300;2023-05-27T05:50:40;13.45;;;5.13;;
67556;SDS011;54387;53.526;49.300;2023-05-27T05:53:06;18.55;;;5.90;;
67556;SDS011;54387;53.526;49.300;2023-05-27T05:55:32;10.15;;;4.95;;
67556;SDS011;54387;53.526;49.300;2023-05-27T05:57:58;22.77;;;5.55;;
67556;SDS011;54387;53.526;49.300;2023-05-27T06:00:26;13.73;;;4.90;;
67556;SDS011;54387;53.526;49.300;2023-05-27T06:02:52;14.40;;;5.43;;
67556;SDS011;54387;53.526;49.300;2023-05-27T06:05:19;15.68;;;5.47;;
67556;SDS011;54387;53.526;49.300;2023-05-27T06:07:46;12.07;;;5.45;;
67556;SDS011;54387;53.526;49.300;2023-05-27T06:10:12;21.95;;;6.35;;
67556;SDS011;54387;53.526;49.300;2023-05-27T06:12:38;18.23;;;5.50;;
67556;SDS011;54387;53.526;49.300;2023-05-27T06:15:05;16.65;;;5.70;;
67556;SDS011;54387;53.526;49.300;2023-05-27T06:17:32;20.42;;;5.38;;
67556;SDS011;54387;53.526;49.300;2023-05-27T06:20:00;17.17;;;4.80;;
67556;SDS011;54387;53.526;49.300;2023-05-27T06:22:26;15.63;;;5.45;;
67556;SDS011;54387;53.526;49.300;2023-05-27T06:24:52;15.00;;;5.13;;
67556;SDS011;54387;53.526;49.300;2023-05-27T06:27:18;15.15;;;4.72;;
67556;SDS011;54387;53.526;49.300;2023-05-27T06:29:45;15.32;;;5.40;;
67556;SDS011;54387;53.526;49.300;2023-05-27T06:32:12;16.25;;;5.18;;
67556;SDS011;54387;53.526;49.300;2023-05-27T06:34:38;14.35;;;4.63;;
67556;SDS011;54387;53.526;49.300;2023-05-27T06:37:04;17.13;;;5.18;;
67556;SDS011;54387;53.526;49.300;2023-05-27T06:39:33;9.38;;;4.10;;
67556;SDS011;54387;53.526;49.300;2023-05-27T06:41:59;18.23;;;5.07;;
67556;SDS011;54387;53.526;49.300;2023-05-27T06:44:25;14.73;;;5.40;;
67556;SDS011;54387;53.526;49.300;2023-05-27T06:46:51;15.00;;;5.25;;
67556;SDS011;54387;53.526;49.300;2023-05-27T06:49:17;15.07;;;4.88;;
67556;SDS011;54387;53.526;49.300;2023-05-27T06:51:44;16.85;;;5.07;;
67556;SDS011;54387;53.526;49.300;2023-05-27T06:54:10;20.92;;;5.00;;
67556;SDS011;54387;53.526;49.300;2023-05-27T06:56:37;13.40;;;5.15;;
67556;SDS011;54387;53.526;49.300;2023-05-27T06:59:03;15.13;;;5.30;;
67556;SDS011;54387;53.526;49.300;2023-05-27T07:01:30;17.52;;;5.85;;
67556;SDS011;54387;53.526;49.300;2023-05-27T07:03:56;18.83;;;5.63;;
67556;SDS011;54387;53.526;49.300;2023-05-27T07:06:23;18.25;;;5.20;;
67556;SDS011;54387;53.526;49.300;2023-05-27T07:08:49;17.80;;;5.45;;
67556;SDS011;54387;53.526;49.300;2023-05-27T07:11:15;15.35;;;5.10;;
67556;SDS011;54387;53.526;49.300;2023-05-27T07:13:41;20.23;;;5.60;;
67556;SDS011;54387;53.526;49.300;2023-05-27T07:16:08;17.10;;;5.10;;
67556;SDS011;54387;53.526;49.300;2023-05-27T07:18:34;17.83;;;5.35;;
67556;SDS011;54387;53.526;49.300;2023-05-27T07:21:00;17.38;;;4.90;;
67556;SDS011;54387;53.526;49.300;2023-05-27T07:23:26;17.50;;;5.25;;
67556;SDS011;54387;53.526;49.300;2023-05-27T07:25:52;16.30;;;4.63;;
67556;SDS011;54387;53.526;49.300;2023-05-27T07:28:19;8.80;;;4.13;;
67556;SDS011;54387;53.526;49.300;2023-05-27T07:30:45;19.73;;;5.13;;
67556;SDS011;54387;53.526;49.300;2023-05-27T07:33:11;11.65;;;4.60;;
67556;SDS011;54387;53.526;49.300;2023-05-27T07:35:38;14.93;;;4.47;;
67556;SDS011;54387;53.526;49.300;2023-05-27T07:38:06;13.73;;;4.57;;
67556;SDS011;54387;53.526;49.300;2023-05-27T07:40:32;19.48;;;4.80;;
67556;SDS011;54387;53.526;49.300;2023-05-27T07:42:58;14.30;;;4.93;;
67556;SDS011;54387;53.526;49.300;2023-05-27T07:45:25;15.23;;;4.50;;
67556;SDS011;54387;53.526;49.300;2023-05-27T07:47:51;17.58;;;4.90;;
67556;SDS011;54387;53.526;49.300;2023-05-27T07:50:17;11.88;;;4.80;;
67556;SDS011;54387;53.526;49.300;2023-05-27T07:52:44;19.80;;;5.20;;
67556;SDS011;54387;53.526;49.300;2023-05-27T07:55:10;18.10;;;4.50;;
67556;SDS011;54387;53.526;49.300;2023-05-27T07:57:36;11.57;;;4.15;;
67556;SDS011;54387;53.526;49.300;2023-05-27T08:00:03;19.17;;;4.68;;
67556;SDS011;54387;53.526;49.300;2023-05-27T08:02:31;14.70;;;5.15;;
67556;SDS011;54387;53.526;49.300;2023-05-27T08:04:57;17.50;;;5.07;;
67556;SDS011;54387;53.526;49.300;2023-05-27T08:07:24;13.00;;;4.80;;
67556;SDS011;54387;53.526;49.300;2023-05-27T08:09:50;16.83;;;4.68;;
67556;SDS011;54387;53.526;49.300;2023-05-27T08:12:17;18.23;;;4.85;;
67556;SDS011;54387;53.526;49.300;2023-05-27T08:14:43;11.75;;;4.70;;
67556;SDS011;54387;53.526;49.300;2023-05-27T08:17:10;18.17;;;4.97;;
67556;SDS011;54387;53.526;49.300;2023-05-27T08:19:36;17.35;;;4.70;;
67556;SDS011;54387;53.526;49.300;2023-05-27T08:22:02;16.35;;;4.72;;
67556;SDS011;54387;53.526;49.300;2023-05-27T08:24:29;12.70;;;4.85;;
67556;SDS011;54387;53.526;49.300;2023-05-27T08:26:57;14.93;;;5.05;;
67556;SDS011;54387;53.526;49.300;2023-05-27T08:29:23;19.75;;;4.75;;
67556;SDS011;54387;53.526;49.300;2023-05-27T08:31:51;13.10;;;4.63;;
67556;SDS011;54387;53.526;49.300;2023-05-27T08:34:18;18.90;;;5.88;;
67556;SDS011;54387;53.526;49.300;2023-05-27T08:36:45;15.25;;;4.78;;
67556;SDS011;54387;53.526;49.300;2023-05-27T08:39:11;13.88;;;5.25;;
67556;SDS011;54387;53.526;49.300;2023-05-27T08:41:38;18.05;;;5.53;;
67556;SDS011;54387;53.526;49.300;2023-05-27T08:44:05;14.90;;;4.53;;
67556;SDS011;54387;53.526;49.300;2023-05-27T08:46:32;16.08;;;4.47;;
67556;SDS011;54387;53.526;49.300;2023-05-27T08:48:59;16.13;;;5.22;;
67556;SDS011;54387;53.526;49.300;2023-05-27T08:51:25;13.75;;;5.30;;
67556;SDS011;54387;53.526;49.300;2023-05-27T08:53:52;13.18;;;4.55;;
67556;SDS011;54387;53.526;49.300;2023-05-27T08:56:19;21.65;;;5.70;;
67556;SDS011;54387;53.526;49.300;2023-05-27T08:58:47;12.63;;;4.80;;
67556;SDS011;54387;53.526;49.300;2023-05-27T09:01:19;16.42;;;5.07;;
67556;SDS011;54387;53.526;49.300;2023-05-27T09:03:46;11.50;;;4.53;;
67556;SDS011;54387;53.526;49.300;2023-05-27T09:06:13;17.65;;;4.40;;
67556;SDS011;54387;53.526;49.300;2023-05-27T09:08:39;19.60;;;5.50;;
67556;SDS011;54387;53.526;49.300;2023-05-27T09:11:06;17.50;;;5.20;;
67556;SDS011;54387;53.526;49.300;2023-05-27T09:13:33;14.52;;;4.40;;
67556;SDS011;54387;53.526;49.300;2023-05-27T09:16:04;13.80;;;4.78;;
67556;SDS011;54387;53.526;49.300;2023-05-27T09:18:35;14.65;;;4.30;;
67556;SDS011;54387;53.526;49.300;2023-05-27T09:21:01;14.15;;;4.50;;
67556;SDS011;54387;53.526;49.300;2023-05-27T09:23:28;12.57;;;4.25;;
67556;SDS011;54387;53.526;49.300;2023-05-27T09:25:55;15.70;;;4.80;;
67556;SDS011;54387;53.526;49.300;2023-05-27T09:28:24;11.15;;;4.75;;
67556;SDS011;54387;53.526;49.300;2023-05-27T09:30:58;11.75;;;4.50;;
67556;SDS011;54387;53.526;49.300;2023-05-27T09:33:26;13.70;;;4.38;;
67556;SDS011;54387;53.526;49.300;2023-05-27T09:35:52;14.20;;;4.22;;
67556;SDS011;54387;53.526;49.300;2023-05-27T09:38:18;9.57;;;4.35;;
67556;SDS011;54387;53.526;49.300;2023-05-27T09:40:45;13.98;;;5.07;;
67556;SDS011;54387;53.526;49.300;2023-05-27T09:43:14;11.60;;;4.03;;
67556;SDS011;54387;53.526;49.300;2023-05-27T09:45:41;17.30;;;4.20;;
67556;SDS011;54387;53.526;49.300;2023-05-27T09:48:09;16.27;;;5.18;;
67556;SDS011;54387;53.526;49.300;2023-05-27T09:50:37;15.48;;;4.57;;
67556;SDS011;54387;53.526;49.300;2023-05-27T09:53:04;16.65;;;4.28;;
67556;SDS011;54387;53.526;49.300;2023-05-27T09:55:30;9.32;;;3.70;;
67556;SDS011;54387;53.526;49.300;2023-05-27T09:57:56;14.77;;;4.35;;
67556;SDS011;54387;53.526;49.300;2023-05-27T10:00:23;12.88;;;4.35;;
67556;SDS011;54387;53.526;49.300;2023-05-27T10:02:49;20.40;;;4.88;;
67556;SDS011;54387;53.526;49.300;2023-05-27T10:05:17;15.85;;;5.15;;
67556;SDS011;54387;53.526;49.300;2023-05-27T10:07:45;15.88;;;4.50;;
67556;SDS011;54387;53.526;49.300;2023-05-27T10:10:12;13.63;;;4.13;;
67556;SDS011;54387;53.526;49.300;2023-05-27T10:12:46;13.07;;;4.40;;
67556;SDS011;54387;53.526;49.300;2023-05-27T10:15:22;11.15;;;4.75;;
67556;SDS011;54387;53.526;49.300;2023-05-27T10:17:56;13.07;;;4.50;;
67556;SDS011;54387;53.526;49.300;2023-05-27T10:20:29;11.82;;;4.97;;
67556;SDS011;54387;53.526;49.300;2023-05-27T10:23:16;14.75;;;4.88;;
67556;SDS011;54387;53.526;49.300;2023-05-27T10:25:49;14.13;;;4.68;;
67556;SDS011;54387;53.526;49.300;2023-05-27T10:28:27;16.73;;;4.40;;
67556;SDS011;54387;53.526;49.300;2023-05-27T10:31:05;16.38;;;4.65;;
67556;SDS011;54387;53.526;49.300;2023-05-27T10:33:39;12.15;;;4.53;;
67556;SDS011;54387;53.526;49.300;2023-05-27T10:36:31;13.23;;;4.50;;
67556;SDS011;54387;53.526;49.300;2023-05-27T10:38:58;12.15;;;5.05;;
67556;SDS011;54387;53.526;49.300;2023-05-27T10:41:39;13.85;;;4.45;;
67556;SDS011;54387;53.526;49.300;2023-05-27T10:44:32;11.63;;;5.03;;
67556;SDS011;54387;53.526;49.300;2023-05-27T10:47:00;15.20;;;5.93;;
67556;SDS011;54387;53.526;49.300;2023-05-27T10:49:33;13.63;;;4.57;;
67556;SDS011;54387;53.526;49.300;2023-05-27T10:52:11;11.48;;;5.13;;
67556;SDS011;54387;53.526;49.300;2023-05-27T10:54:39;17.77;;;4.80;;
67556;SDS011;54387;53.526;49.300;2023-05-27T10:57:06;14.77;;;4.90;;
67556;SDS011;54387;53.526;49.300;2023-05-27T10:59:55;11.20;;;5.00;;
67556;SDS011;54387;53.526;49.300;2023-05-27T11:02:21;13.95;;;5.10;;
67556;SDS011;54387;53.526;49.300;2023-05-27T11:04:48;12.57;;;4.13;;
67556;SDS011;54387;53.526;49.300;2023-05-27T11:07:18;15.65;;;4.68;;
67556;SDS011;54387;53.526;49.300;2023-05-27T11:09:50;14.02;;;5.13;;
67556;SDS011;54387;53.526;49.300;2023-05-27T11:12:19;16.25;;;4.60;;
67556;SDS011;54387;53.526;49.300;2023-05-27T11:14:50;13.50;;;4.60;;
67556;SDS011;54387;53.526;49.300;2023-05-27T11:17:18;14.35;;;5.07;;
67556;SDS011;54387;53.526;49.300;2023-05-27T11:19:45;12.27;;;4.78;;
67556;SDS011;54387;53.526;49.300;2023-05-27T11:22:12;21.88;;;4.90;;
67556;SDS011;54387;53.526;49.300;2023-05-27T11:24:39;12.05;;;5.07;;
67556;SDS011;54387;53.526;49.300;2023-05-27T11:27:09;14.40;;;4.80;;
67556;SDS011;54387;53.526;49.300;2023-05-27T11:29:37;20.83;;;5.40;;
67556;SDS011;54387;53.526;49.300;2023-05-27T11:32:07;13.70;;;5.18;;
67556;SDS011;54387;53.526;49.300;2023-05-27T11:34:35;13.98;;;4.43;;
67556;SDS011;54387;53.526;49.300;2023-05-27T11:37:02;16.52;;;5.28;;
67556;SDS011;54387;53.526;49.300;2023-05-27T11:39:30;15.90;;;4.57;;
67556;SDS011;54387;53.526;49.300;2023-05-27T11:41:57;17.23;;;5.55;;
67556;SDS011;54387;53.526;49.300;2023-05-27T11:44:24;15.82;;;5.03;;
67556;SDS011;54387;53.526;49.300;2023-05-27T11:46:51;17.33;;;4.95;;
67556;SDS011;54387;53.526;49.300;2023-05-27T11:49:23;12.40;;;4.82;;
67556;SDS011;54387;53.526;49.300;2023-05-27T11:51:49;18.17;;;4.70;;
67556;SDS011;54387;53.526;49.300;2023-05-27T11:54:26;13.82;;;4.32;;
67556;SDS011;54387;53.526;49.300;2023-05-27T11:56:54;15.20;;;4.75;;
67556;SDS011;54387;53.526;49.300;2023-05-27T11:59:22;14.85;;;4.72;;
67556;SDS011;54387;53.526;49.300;2023-05-27T12:01:49;14.68;;;4.32;;
67556;SDS011;54387;53.526;49.300;2023-05-27T12:04:16;10.85;;;4.70;;
67556;SDS011;54387;53.526;49.300;2023-05-27T12:06:44;16.08;;;4.85;;
67556;SDS011;54387;53.526;49.300;2023-05-27T12:09:11;13.45;;;4.88;;
67556;SDS011;54387;53.526;49.300;2023-05-27T12:11:38;15.25;;;5.10;;
67556;SDS011;54387;53.526;49.300;2023-05-27T12:14:04;14.25;;;6.30;;
67556;SDS011;54387;53.526;49.300;2023-05-27T12:16:31;13.88;;;4.70;;
67556;SDS011;54387;53.526;49.300;2023-05-27T12:18:58;17.48;;;5.10;;
67556;SDS011;54387;53.526;49.300;2023-05-27T12:21:24;17.48;;;5.53;;
67556;SDS011;54387;53.526;49.300;2023-05-27T12:23:50;18.67;;;5.47;;
67556;SDS011;54387;53.526;49.300;2023-05-27T12:26:17;16.15;;;4.50;;
67556;SDS011;54387;53.526;49.300;2023-05-27T12:28:43;12.30;;;4.90;;
67556;SDS011;54387;53.526;49.300;2023-05-27T12:31:10;18.27;;;5.82;;
67556;SDS011;54387;53.526;49.300;2023-05-27T12:33:37;16.60;;;5.40;;
67556;SDS011;54387;53.526;49.300;2023-05-27T12:36:03;16.25;;;5.63;;
67556;SDS011;54387;53.526;49.300;2023-05-27T12:38:33;10.00;;;5.10;;
67556;SDS011;54387;53.526;49.300;2023-05-27T12:40:59;16.30;;;5.70;;
67556;SDS011;54387;53.526;49.300;2023-05-27T12:43:26;18.08;;;5.13;;
67556;SDS011;54387;53.526;49.300;2023-05-27T12:45:52;14.60;;;5.18;;
67556;SDS011;54387;53.526;49.300;2023-05-27T12:48:18;17.98;;;5.22;;
67556;SDS011;54387;53.526;49.300;2023-05-27T12:50:46;20.13;;;5.47;;
67556;SDS011;54387;53.526;49.300;2023-05-27T12:53:12;16.88;;;5.55;;
67556;SDS011;54387;53.526;49.300;2023-05-27T12:55:38;15.13;;;5.07;;
67556;SDS011;54387;53.526;49.300;2023-05-27T12:58:05;19.75;;;5.32;;
67556;SDS011;54387;53.526;49.300;2023-05-27T13:00:31;19.67;;;5.30;;
67556;SDS011;54387;53.526;49.300;2023-05-27T13:02:59;17.48;;;4.93;;
67556;SDS011;54387;53.526;49.300;2023-05-27T13:05:26;13.00;;;5.18;;
67556;SDS011;54387;53.526;49.300;2023-05-27T13:07:53;16.02;;;5.68;;
67556;SDS011;54387;53.526;49.300;2023-05-27T13:10:30;15.57;;;5.40;;
67556;SDS011;54387;53.526;49.300;2023-05-27T13:12:57;16.00;;;5.30;;
67556;SDS011;54387;53.526;49.300;2023-05-27T13:15:24;16.58;;;5.43;;
67556;SDS011;54387;53.526;49.300;2023-05-27T13:17:51;17.00;;;5.68;;
67556;SDS011;54387;53.526;49.300;2023-05-27T13:20:18;21.42;;;6.50;;
67556;SDS011;54387;53.526;49.300;2023-05-27T13:22:48;14.98;;;6.45;;
67556;SDS011;54387;53.526;49.300;2023-05-27T13:25:15;25.98;;;6.40;;
67556;SDS011;54387;53.526;49.300;2023-05-27T13:27:42;22.83;;;5.70;;
67556;SDS011;54387;53.526;49.300;2023-05-27T13:30:12;12.85;;;5.90;;
67556;SDS011;54387;53.526;49.300;2023-05-27T13:32:40;17.05;;;5.82;;
67556;SDS011;54387;53.526;49.300;2023-05-27T13:35:08;20.23;;;6.47;;
67556;SDS011;54387;53.526;49.300;2023-05-27T13:37:36;14.45;;;5.63;;
67556;SDS011;54387;53.526;49.300;2023-05-27T13:40:06;16.42;;;6.20;;
67556;SDS011;54387;53.526;49.300;2023-05-27T13:42:34;15.38;;;6.20;;
67556;SDS011;54387;53.526;49.300;2023-05-27T13:45:00;16.55;;;6.18;;
67556;SDS011;54387;53.526;49.300;2023-05-27T13:47:28;21.73;;;6.68;;
67556;SDS011;54387;53.526;49.300;2023-05-27T13:49:54;17.70;;;6.13;;
67556;SDS011;54387;53.526;49.300;2023-05-27T13:52:20;17.30;;;5.85;;
67556;SDS011;54387;53.526;49.300;2023-05-27T13:54:47;14.70;;;6.15;;
67556;SDS011;54387;53.526;49.300;2023-05-27T13:57:13;14.93;;;6.30;;
67556;SDS011;54387;53.526;49.300;2023-05-27T13:59:39;19.92;;;6.80;;
67556;SDS011;54387;53.526;49.300;2023-05-27T14:02:06;14.93;;;5.47;;
67556;SDS011;54387;53.526;49.300;2023-05-27T14:04:34;18.05;;;6.10;;
67556;SDS011;54387;53.526;49.300;2023-05-27T14:07:01;15.02;;;5.72;;
67556;SDS011;54387;53.526;49.300;2023-05-27T14:09:27;22.38;;;5.88;;
67556;SDS011;54387;53.526;49.300;2023-05-27T14:11:54;16.88;;;5.95;;
67556;SDS011;54387;53.526;49.300;2023-05-27T14:14:21;19.70;;;6.35;;
67556;SDS011;54387;53.526;49.300;2023-05-27T14:16:47;18.38;;;6.60;;
67556;SDS011;54387;53.526;49.300;2023-05-27T14:19:13;22.73;;;6.43;;
67556;SDS011;54387;53.526;49.300;2023-05-27T14:21:40;16.75;;;5.88;;
67556;SDS011;54387;53.526;49.300;2023-05-27T14:24:06;18.52;;;6.63;;
67556;SDS011;54387;53.526;49.300;2023-05-27T14:26:32;17.63;;;8.98;;